Time;durP1;ratioP1;P1;durP2;ratioP2;P2;SDS_P1;SDS_P2;PMS_P1;PMS_P2;Temp;Humidity;BMP_temperature;BMP_pressure;BME280_temperature;BME280_humidity;BME280_pressure;Samples;Min_cycle;Max_cycle;Signal;HPM_P1;HPM_P2
2023/06/25 00:00:17;;;;;;;8.70;4.93;;;;;;;;;;5056906;28;20025;-79
2023/06/25 00:02:42;;;;;;;5.63;4.30;;;;;;;;;;5047416;28;20027;-79
2023/06/25 00:05:07;;;;;;;6.28;4.57;;;;;;;;;;5077248;28;20099;-80
2023/06/25 00:07:33;;;;;;;7.55;4.88;;;;;;;;;;5076626;28;20025;-78
2023/06/25 00:09:58;;;;;;;6.95;4.82;;;;;;;;;;5075993;28;20024;-78
2023/06/25 00:12:23;;;;;;;6.47;4.85;;;;;;;;;;5073848;28;20036;-79
2023/06/25 00:14:49;;;;;;;8.02;5.03;;;;;;;;;;5074210;28;20025;-79
2023/06/25 00:17:17;;;;;;;7.40;4.43;;;;;;;;;;5057260;28;20033;-79
2023/06/25 00:19:46;;;;;;;6.93;4.70;;;;;;;;;;5077613;28;20040;-79
2023/06/25 00:22:12;;;;;;;7.55;4.35;;;;;;;;;;5056532;28;20045;-79
2023/06/25 00:24:38;;;;;;;10.18;4.40;;;;;;;;;;5056343;28;20444;-79
2023/06/25 00:27:04;;;;;;;4.82;4.28;;;;;;;;;;5058072;28;20028;-79
2023/06/25 00:29:29;;;;;;;5.82;4.22;;;;;;;;;;5059651;28;20052;-79
2023/06/25 00:31:55;;;;;;;6.45;4.38;;;;;;;;;;5057968;28;20086;-79
2023/06/25 00:34:20;;;;;;;7.70;4.65;;;;;;;;;;5059678;28;20029;-78
2023/06/25 00:36:45;;;;;;;6.82;4.93;;;;;;;;;;5058010;28;20491;-79
2023/06/25 00:39:11;;;;;;;6.38;5.05;;;;;;;;;;5057880;28;20060;-78
2023/06/25 00:41:39;;;;;;;12.57;6.35;;;;;;;;;;5058550;28;20029;-79
2023/06/25 00:44:06;;;;;;;9.48;7.05;;;;;;;;;;5059006;28;20037;-79
2023/06/25 00:46:31;;;;;;;8.85;6.57;;;;;;;;;;5057501;28;20049;-79
2023/06/25 00:48:57;;;;;;;10.35;6.40;;;;;;;;;;5058742;28;20033;-79
2023/06/25 00:51:27;;;;;;;7.38;5.70;;;;;;;;;;5058449;28;20164;-79
2023/06/25 00:53:53;;;;;;;7.70;5.93;;;;;;;;;;5060999;28;20095;-79
2023/06/25 00:56:27;;;;;;;7.15;5.50;;;;;;;;;;5060099;28;20071;-78
2023/06/25 00:58:54;;;;;;;6.50;5.22;;;;;;;;;;5058829;28;20040;-77
2023/06/25 01:01:26;;;;;;;6.95;5.68;;;;;;;;;;5059201;28;20029;-79
2023/06/25 01:03:56;;;;;;;8.88;5.72;;;;;;;;;;5058813;28;20037;-79
2023/06/25 01:06:29;;;;;;;6.57;5.40;;;;;;;;;;5059194;28;20021;-79
2023/06/25 01:08:59;;;;;;;9.82;5.55;;;;;;;;;;5061724;28;20035;-79
2023/06/25 01:11:24;;;;;;;10.10;5.47;;;;;;;;;;5079005;28;20115;-78
2023/06/25 01:13:50;;;;;;;6.18;4.72;;;;;;;;;;5079121;28;20074;-79
2023/06/25 01:16:15;;;;;;;7.90;5.32;;;;;;;;;;5079050;28;20500;-79
2023/06/25 01:18:41;;;;;;;7.53;5.68;;;;;;;;;;5053431;28;20036;-79
2023/06/25 01:21:09;;;;;;;7.95;5.40;;;;;;;;;;5060224;28;20029;-80
2023/06/25 01:23:35;;;;;;;5.60;4.78;;;;;;;;;;5060161;28;20025;-79
2023/06/25 01:26:01;;;;;;;6.95;4.90;;;;;;;;;;5058767;28;20494;-79
2023/06/25 01:28:26;;;;;;;8.98;5.25;;;;;;;;;;5058335;28;20037;-79
2023/06/25 01:30:53;;;;;;;5.75;5.05;;;;;;;;;;5059088;28;20040;-78
2023/06/25 01:33:25;;;;;;;7.78;5.50;;;;;;;;;;5059124;28;20031;-78
2023/06/25 01:35:51;;;;;;;7.15;5.18;;;;;;;;;;5041264;28;20029;-80
2023/06/25 01:38:16;;;;;;;5.68;4.80;;;;;;;;;;5040161;28;20040;-79
2023/06/25 01:40:42;;;;;;;6.50;5.05;;;;;;;;;;5058747;28;20037;-79
2023/06/25 01:43:07;;;;;;;6.38;4.75;;;;;;;;;;5058331;28;20116;-79
2023/06/25 01:45:32;;;;;;;5.70;4.30;;;;;;;;;;5058315;28;20594;-78
2023/06/25 01:47:58;;;;;;;6.50;5.00;;;;;;;;;;5040941;28;20059;-79
2023/06/25 01:50:23;;;;;;;5.57;4.53;;;;;;;;;;5040537;28;20071;-80
2023/06/25 01:52:48;;;;;;;8.23;4.43;;;;;;;;;;5058465;28;20111;-79
2023/06/25 01:55:14;;;;;;;6.32;4.93;;;;;;;;;;5058339;28;20056;-79
2023/06/25 01:57:39;;;;;;;4.95;4.43;;;;;;;;;;5040470;28;20041;-79
2023/06/25 02:00:08;;;;;;;7.45;5.25;;;;;;;;;;5040158;28;20020;-79
2023/06/25 02:02:33;;;;;;;5.20;4.70;;;;;;;;;;5059047;28;20467;-79
2023/06/25 02:04:59;;;;;;;7.32;4.72;;;;;;;;;;5040196;28;20036;-81
2023/06/25 02:07:24;;;;;;;7.05;4.88;;;;;;;;;;5039765;28;20036;-81
2023/06/25 02:09:49;;;;;;;6.00;4.70;;;;;;;;;;5058214;28;20036;-81
2023/06/25 02:12:14;;;;;;;6.60;4.95;;;;;;;;;;5039479;28;20152;-81
2023/06/25 02:14:40;;;;;;;5.82;4.60;;;;;;;;;;5039770;28;20414;-82
2023/06/25 02:17:05;;;;;;;6.15;4.85;;;;;;;;;;5039589;28;20037;-79
2023/06/25 02:19:30;;;;;;;7.90;5.32;;;;;;;;;;5039713;28;20029;-80
2023/06/25 02:21:56;;;;;;;7.00;4.70;;;;;;;;;;5040029;28;20037;-81
2023/06/25 02:24:21;;;;;;;6.60;4.78;;;;;;;;;;5039554;28;20060;-81
2023/06/25 02:26:46;;;;;;;6.68;4.90;;;;;;;;;;5057745;28;20017;-79
2023/06/25 02:29:12;;;;;;;7.70;4.78;;;;;;;;;;5039276;28;20056;-82
2023/06/25 02:31:37;;;;;;;5.45;4.38;;;;;;;;;;5039502;28;20037;-81
2023/06/25 02:34:02;;;;;;;5.10;4.50;;;;;;;;;;5039843;28;20029;-82
2023/06/25 02:36:27;;;;;;;7.75;4.80;;;;;;;;;;5040048;28;20040;-81
2023/06/25 02:38:53;;;;;;;8.27;4.45;;;;;;;;;;5039818;28;20501;-81
2023/06/25 02:41:18;;;;;;;6.35;4.70;;;;;;;;;;5039045;28;20183;-81
2023/06/25 02:43:43;;;;;;;8.93;4.55;;;;;;;;;;5039063;28;20513;-80
2023/06/25 02:46:08;;;;;;;6.10;4.40;;;;;;;;;;5039592;28;20045;-80
2023/06/25 02:48:36;;;;;;;7.50;4.60;;;;;;;;;;5038858;28;20033;-80
2023/06/25 02:51:01;;;;;;;6.72;4.13;;;;;;;;;;5039323;28;20124;-82
2023/06/25 02:53:27;;;;;;;5.90;4.22;;;;;;;;;;5057540;28;20661;-81
2023/06/25 02:55:52;;;;;;;6.63;4.57;;;;;;;;;;5039586;28;20095;-80
2023/06/25 02:58:17;;;;;;;4.82;3.83;;;;;;;;;;5038421;28;20116;-80
2023/06/25 03:00:43;;;;;;;15.23;4.13;;;;;;;;;;5038937;28;20065;-81
2023/06/25 03:03:08;;;;;;;9.70;4.68;;;;;;;;;;5056702;28;20024;-80
2023/06/25 03:05:33;;;;;;;6.18;4.30;;;;;;;;;;5057050;28;20035;-79
2023/06/25 03:07:59;;;;;;;6.75;4.65;;;;;;;;;;5038182;28;20045;-79
2023/06/25 03:10:28;;;;;;;6.78;4.35;;;;;;;;;;5038361;28;20033;-82
2023/06/25 03:12:53;;;;;;;4.93;4.15;;;;;;;;;;5038159;28;20063;-80
2023/06/25 03:15:18;;;;;;;6.65;4.35;;;;;;;;;;5038016;28;20490;-80
2023/06/25 03:17:45;;;;;;;5.55;4.35;;;;;;;;;;5056596;28;20055;-81
2023/06/25 03:20:11;;;;;;;5.25;4.38;;;;;;;;;;5038765;28;20053;-81
2023/06/25 03:22:36;;;;;;;6.75;4.63;;;;;;;;;;5037956;28;20033;-80
2023/06/25 03:25:03;;;;;;;4.85;4.32;;;;;;;;;;5055953;28;20056;-80
2023/06/25 03:27:30;;;;;;;7.15;4.60;;;;;;;;;;5037653;28;20040;-81
2023/06/25 03:29:55;;;;;;;5.18;4.38;;;;;;;;;;5038824;28;20025;-82
2023/06/25 03:32:20;;;;;;;5.25;4.03;;;;;;;;;;5055664;28;20517;-80
2023/06/25 03:34:45;;;;;;;5.28;4.10;;;;;;;;;;5037831;28;20032;-82
2023/06/25 03:37:11;;;;;;;5.40;4.15;;;;;;;;;;5056231;28;20572;-81
2023/06/25 03:39:36;;;;;;;7.18;4.93;;;;;;;;;;5038904;28;20059;-78
2023/06/25 03:42:02;;;;;;;5.82;3.97;;;;;;;;;;5038588;28;20029;-81
2023/06/25 03:44:27;;;;;;;5.25;4.55;;;;;;;;;;5056053;28;20403;-81
2023/06/25 03:46:52;;;;;;;6.35;4.40;;;;;;;;;;5055642;28;20044;-83
2023/06/25 03:49:18;;;;;;;6.28;4.80;;;;;;;;;;5037781;28;20032;-81
2023/06/25 03:51:43;;;;;;;5.20;4.40;;;;;;;;;;5056780;28;20029;-81
2023/06/25 03:54:08;;;;;;;6.68;4.20;;;;;;;;;;5037723;28;20029;-83
2023/06/25 03:56:33;;;;;;;5.20;4.32;;;;;;;;;;5057252;28;20442;-81
2023/06/25 03:58:59;;;;;;;5.30;4.13;;;;;;;;;;5056680;28;20063;-82
2023/06/25 04:01:24;;;;;;;4.28;3.85;;;;;;;;;;5038337;28;20033;-82
2023/06/25 04:03:49;;;;;;;6.18;4.10;;;;;;;;;;5037879;28;20040;-83
2023/06/25 04:06:14;;;;;;;7.18;4.70;;;;;;;;;;5037837;28;20092;-82
2023/06/25 04:08:40;;;;;;;5.55;3.85;;;;;;;;;;5038507;28;20066;-82
2023/06/25 04:11:05;;;;;;;5.47;3.90;;;;;;;;;;5038482;28;20099;-82
2023/06/25 04:13:31;;;;;;;7.35;3.88;;;;;;;;;;5038323;28;20071;-81
2023/06/25 04:15:56;;;;;;;4.82;3.80;;;;;;;;;;5038489;28;20082;-82
2023/06/25 04:18:21;;;;;;;6.10;3.85;;;;;;;;;;5055890;28;20102;-81
2023/06/25 04:20:47;;;;;;;5.07;3.72;;;;;;;;;;5037951;28;20025;-80
2023/06/25 04:23:12;;;;;;;4.20;3.72;;;;;;;;;;5038354;28;20471;-80
2023/06/25 04:25:37;;;;;;;5.15;4.10;;;;;;;;;;5055288;28;20407;-81
2023/06/25 04:28:03;;;;;;;4.95;4.07;;;;;;;;;;5055891;28;20036;-82
2023/06/25 04:30:28;;;;;;;5.57;3.53;;;;;;;;;;5038076;28;20063;-83
2023/06/25 04:32:54;;;;;;;4.68;4.10;;;;;;;;;;5038478;28;20016;-82
2023/06/25 04:35:20;;;;;;;6.47;3.67;;;;;;;;;;5055765;28;20029;-81
2023/06/25 04:37:45;;;;;;;5.68;4.03;;;;;;;;;;5056146;28;20029;-82
2023/06/25 04:40:12;;;;;;;4.32;3.42;;;;;;;;;;5038223;28;20025;-81
2023/06/25 04:42:37;;;;;;;4.43;3.70;;;;;;;;;;5056479;28;20036;-82
2023/06/25 04:45:03;;;;;;;5.10;3.55;;;;;;;;;;5038099;28;20021;-82
2023/06/25 04:47:28;;;;;;;5.05;3.95;;;;;;;;;;5038506;28;20024;-82
2023/06/25 04:49:54;;;;;;;4.97;3.53;;;;;;;;;;5037694;28;20025;-82
2023/06/25 04:52:19;;;;;;;4.57;3.97;;;;;;;;;;5055545;28;20044;-81
2023/06/25 04:54:45;;;;;;;4.05;3.58;;;;;;;;;;5037200;28;20029;-80
2023/06/25 04:57:11;;;;;;;3.95;3.42;;;;;;;;;;5038359;28;20048;-81
2023/06/25 04:59:36;;;;;;;3.92;3.63;;;;;;;;;;5038260;28;20125;-80
2023/06/25 05:02:01;;;;;;;4.13;3.55;;;;;;;;;;5037578;28;20060;-81
2023/06/25 05:04:28;;;;;;;3.72;3.42;;;;;;;;;;5024594;28;20140;-82
2023/06/25 05:06:54;;;;;;;4.32;3.88;;;;;;;;;;5040927;28;20045;-81
2023/06/25 05:09:20;;;;;;;5.25;3.70;;;;;;;;;;5041755;28;20033;-83
2023/06/25 05:11:45;;;;;;;5.47;3.83;;;;;;;;;;5059288;28;20463;-83
2023/06/25 05:14:11;;;;;;;4.35;3.30;;;;;;;;;;5059589;28;20672;-82
2023/06/25 05:16:36;;;;;;;4.32;3.30;;;;;;;;;;5041158;28;20036;-83
2023/06/25 05:19:01;;;;;;;3.92;3.28;;;;;;;;;;5059384;28;20185;-83
2023/06/25 05:21:26;;;;;;;5.80;3.80;;;;;;;;;;5040423;28;20033;-82
2023/06/25 05:24:03;;;;;;;3.67;3.30;;;;;;;;;;5059311;28;20086;-82
2023/06/25 05:26:29;;;;;;;6.00;4.05;;;;;;;;;;5058442;28;20071;-82
2023/06/25 05:28:54;;;;;;;4.10;3.55;;;;;;;;;;5040590;28;20037;-81
2023/06/25 05:31:20;;;;;;;5.30;3.45;;;;;;;;;;5058079;28;20033;-83
2023/06/25 05:33:45;;;;;;;4.97;3.88;;;;;;;;;;5040969;28;20415;-83
2023/06/25 05:36:12;;;;;;;4.07;3.13;;;;;;;;;;5041044;28;20064;-81
2023/06/25 05:38:37;;;;;;;4.38;3.42;;;;;;;;;;5041342;28;20024;-82
2023/06/25 05:41:03;;;;;;;4.68;3.20;;;;;;;;;;5040604;28;20025;-81
2023/06/25 05:43:28;;;;;;;3.88;3.40;;;;;;;;;;5057359;28;20033;-82
2023/06/25 05:45:53;;;;;;;6.18;3.50;;;;;;;;;;5058213;28;20556;-83
2023/06/25 05:48:19;;;;;;;4.88;3.65;;;;;;;;;;5057981;28;20025;-83
2023/06/25 05:50:44;;;;;;;3.95;3.33;;;;;;;;;;5040922;28;20348;-84
2023/06/25 05:53:09;;;;;;;3.80;3.50;;;;;;;;;;5040914;28;20504;-80
2023/06/25 05:55:34;;;;;;;4.18;3.55;;;;;;;;;;5040843;28;20083;-82
2023/06/25 05:58:00;;;;;;;5.25;3.80;;;;;;;;;;5040511;28;20068;-82
2023/06/25 06:00:26;;;;;;;4.07;3.33;;;;;;;;;;5039858;28;20082;-82
2023/06/25 06:02:51;;;;;;;4.68;3.65;;;;;;;;;;5040358;28;20395;-81
2023/06/25 06:05:16;;;;;;;3.88;3.28;;;;;;;;;;5040028;28;20517;-82
2023/06/25 06:07:42;;;;;;;4.65;3.85;;;;;;;;;;5040623;28;20115;-82
2023/06/25 06:10:07;;;;;;;3.97;3.58;;;;;;;;;;5039589;28;20041;-81
2023/06/25 06:12:32;;;;;;;4.93;3.78;;;;;;;;;;5058105;28;20072;-84
2023/06/25 06:14:58;;;;;;;5.25;3.50;;;;;;;;;;5058354;28;20029;-82
2023/06/25 06:17:23;;;;;;;4.65;3.80;;;;;;;;;;5040234;28;20033;-81
2023/06/25 06:19:49;;;;;;;6.57;3.53;;;;;;;;;;5039330;28;20507;-81
2023/06/25 06:22:16;;;;;;;4.10;3.53;;;;;;;;;;5057585;28;20463;-81
2023/06/25 06:24:42;;;;;;;6.32;3.80;;;;;;;;;;5056968;28;20029;-80
2023/06/25 06:27:07;;;;;;;3.80;3.30;;;;;;;;;;5039140;28;20028;-81
2023/06/25 06:29:33;;;;;;;4.03;2.90;;;;;;;;;;5040265;28;20643;-80
2023/06/25 06:31:58;;;;;;;4.30;3.17;;;;;;;;;;5058010;28;20025;-80
2023/06/25 06:34:23;;;;;;;3.60;3.30;;;;;;;;;;5039506;28;20120;-78
2023/06/25 06:36:49;;;;;;;4.15;3.75;;;;;;;;;;5039957;28;20052;-81
2023/06/25 06:39:15;;;;;;;4.88;3.22;;;;;;;;;;5057585;28;20027;-81
2023/06/25 06:41:40;;;;;;;4.15;3.40;;;;;;;;;;5040732;28;20028;-80
2023/06/25 06:44:14;;;;;;;4.13;3.65;;;;;;;;;;5058386;28;20061;-82
2023/06/25 06:46:39;;;;;;;4.32;3.40;;;;;;;;;;5058354;28;20510;-81
2023/06/25 06:49:05;;;;;;;3.35;3.05;;;;;;;;;;5040649;28;20033;-81
2023/06/25 06:51:31;;;;;;;4.43;3.25;;;;;;;;;;5048297;28;20033;-79
2023/06/25 06:53:56;;;;;;;9.57;3.58;;;;;;;;;;5060209;28;20020;-78
2023/06/25 06:56:21;;;;;;;4.22;3.60;;;;;;;;;;5059645;28;20096;-79
2023/06/25 06:58:47;;;;;;;3.80;3.47;;;;;;;;;;5059669;28;20036;-79
2023/06/25 07:01:13;;;;;;;3.65;3.20;;;;;;;;;;5059654;28;20029;-77
2023/06/25 07:03:38;;;;;;;3.35;3.05;;;;;;;;;;5059136;28;20093;-77
2023/06/25 07:06:04;;;;;;;4.97;3.65;;;;;;;;;;5076667;28;20017;-79
2023/06/25 07:08:29;;;;;;;7.22;3.58;;;;;;;;;;5056783;28;20050;-81
2023/06/25 07:10:54;;;;;;;3.60;3.25;;;;;;;;;;5045481;28;20337;-82
2023/06/25 07:13:19;;;;;;;4.05;3.53;;;;;;;;;;5041817;28;20036;-81
2023/06/25 07:15:45;;;;;;;4.15;3.55;;;;;;;;;;5041092;28;20025;-82
2023/06/25 07:18:10;;;;;;;3.85;3.30;;;;;;;;;;5040524;28;20021;-81
2023/06/25 07:20:35;;;;;;;4.75;3.20;;;;;;;;;;5057982;28;20467;-81
2023/06/25 07:23:00;;;;;;;5.03;3.50;;;;;;;;;;5039515;28;20116;-81
2023/06/25 07:25:26;;;;;;;5.97;3.85;;;;;;;;;;5057373;28;20036;-84
2023/06/25 07:27:51;;;;;;;3.88;3.03;;;;;;;;;;5057135;28;20032;-83
2023/06/25 07:30:16;;;;;;;5.30;3.53;;;;;;;;;;5039870;28;20025;-83
2023/06/25 07:32:42;;;;;;;5.00;3.33;;;;;;;;;;5057782;28;20103;-82
2023/06/25 07:35:08;;;;;;;4.43;3.40;;;;;;;;;;5038593;28;20029;-81
2023/06/25 07:37:33;;;;;;;4.38;3.67;;;;;;;;;;5038923;28;20034;-83
2023/06/25 07:39:58;;;;;;;6.13;3.72;;;;;;;;;;5056125;28;20052;-81
2023/06/25 07:42:23;;;;;;;5.72;3.95;;;;;;;;;;5056756;28;20067;-81
2023/06/25 07:44:49;;;;;;;6.03;3.72;;;;;;;;;;5057182;28;20402;-84
2023/06/25 07:47:14;;;;;;;4.10;3.47;;;;;;;;;;5056013;28;20090;-83
2023/06/25 07:49:39;;;;;;;4.75;4.00;;;;;;;;;;5057396;28;20443;-82
2023/06/25 07:52:05;;;;;;;4.00;3.67;;;;;;;;;;5039304;28;20029;-82
2023/06/25 07:54:30;;;;;;;7.50;4.28;;;;;;;;;;5038981;28;20032;-82
2023/06/25 07:56:55;;;;;;;3.78;3.42;;;;;;;;;;5039439;28;20021;-82
2023/06/25 07:59:21;;;;;;;4.25;3.80;;;;;;;;;;5039439;28;20111;-81
2023/06/25 08:01:46;;;;;;;5.88;4.20;;;;;;;;;;5038609;28;20108;-81
2023/06/25 08:04:12;;;;;;;4.15;3.70;;;;;;;;;;5035544;28;20549;-80
2023/06/25 08:06:37;;;;;;;4.00;3.60;;;;;;;;;;5035129;28;20044;-80
2023/06/25 08:09:03;;;;;;;6.00;4.00;;;;;;;;;;5035763;28;20442;-80
2023/06/25 08:11:28;;;;;;;4.38;3.40;;;;;;;;;;5056377;28;20028;-80
2023/06/25 08:13:54;;;;;;;4.80;3.97;;;;;;;;;;5038742;28;20040;-80
2023/06/25 08:16:19;;;;;;;4.20;3.53;;;;;;;;;;5036769;28;20039;-80
2023/06/25 08:18:44;;;;;;;4.32;3.65;;;;;;;;;;5040368;28;20051;-80
2023/06/25 08:21:10;;;;;;;8.25;3.78;;;;;;;;;;5053871;28;20098;-80
2023/06/25 08:23:35;;;;;;;5.63;3.80;;;;;;;;;;5033549;28;20035;-80
2023/06/25 08:26:00;;;;;;;3.53;3.22;;;;;;;;;;5037628;28;20089;-78
2023/06/25 08:28:26;;;;;;;8.45;3.63;;;;;;;;;;5065212;28;20457;-80
2023/06/25 08:30:51;;;;;;;6.43;3.75;;;;;;;;;;5059375;28;20102;-80
2023/06/25 08:33:16;;;;;;;4.43;3.65;;;;;;;;;;5034955;28;20025;-80
2023/06/25 08:35:41;;;;;;;5.90;3.60;;;;;;;;;;5054633;28;20364;-80
2023/06/25 08:38:08;;;;;;;4.90;4.10;;;;;;;;;;5052120;28;20037;-80
2023/06/25 08:40:35;;;;;;;4.55;4.10;;;;;;;;;;5055812;28;20029;-80
2023/06/25 08:43:00;;;;;;;5.40;4.00;;;;;;;;;;5038061;28;20041;-80
2023/06/25 08:45:26;;;;;;;6.50;3.70;;;;;;;;;;5041917;28;20412;-80
2023/06/25 08:47:55;;;;;;;6.95;3.80;;;;;;;;;;5058154;28;20024;-79
2023/06/25 08:50:21;;;;;;;4.07;3.67;;;;;;;;;;5040761;28;20029;-80
2023/06/25 08:52:47;;;;;;;4.65;3.20;;;;;;;;;;5037699;28;20040;-79
2023/06/25 08:55:14;;;;;;;5.97;4.20;;;;;;;;;;5056805;28;20123;-81
2023/06/25 08:57:39;;;;;;;8.93;3.92;;;;;;;;;;5060064;28;20033;-80
2023/06/25 09:00:06;;;;;;;6.03;3.80;;;;;;;;;;5042959;28;20025;-80
2023/06/25 09:02:32;;;;;;;4.55;3.85;;;;;;;;;;5065540;28;20281;-80
2023/06/25 09:05:07;;;;;;;4.20;3.78;;;;;;;;;;5057079;28;20032;-80
2023/06/25 09:07:45;;;;;;;4.65;4.18;;;;;;;;;;5065321;28;20028;-80
2023/06/25 09:10:11;;;;;;;5.43;4.10;;;;;;;;;;5056636;28;20037;-80
2023/06/25 09:12:37;;;;;;;4.47;4.07;;;;;;;;;;5038206;28;20095;-80
2023/06/25 09:15:02;;;;;;;4.65;4.18;;;;;;;;;;5055718;28;20499;-81
2023/06/25 09:17:28;;;;;;;8.13;4.18;;;;;;;;;;5057210;28;20045;-80
2023/06/25 09:19:53;;;;;;;4.82;4.38;;;;;;;;;;5054401;28;20503;-81
2023/06/25 09:22:19;;;;;;;5.22;3.78;;;;;;;;;;5038782;28;20041;-80
2023/06/25 09:24:47;;;;;;;13.25;4.53;;;;;;;;;;5061953;28;20384;-80
2023/06/25 09:27:13;;;;;;;4.07;3.70;;;;;;;;;;5064851;28;20017;-80
2023/06/25 09:29:39;;;;;;;5.07;4.03;;;;;;;;;;5063348;28;20020;-80
2023/06/25 09:32:11;;;;;;;6.70;3.97;;;;;;;;;;5056559;28;20029;-80
2023/06/25 09:34:39;;;;;;;5.10;4.28;;;;;;;;;;5037764;28;20063;-80
2023/06/25 09:37:06;;;;;;;4.93;3.80;;;;;;;;;;5059622;28;20232;-78
2023/06/25 09:39:31;;;;;;;4.85;4.00;;;;;;;;;;5071458;28;20036;-79
2023/06/25 09:41:58;;;;;;;5.93;4.13;;;;;;;;;;5072699;28;20029;-79
2023/06/25 09:44:23;;;;;;;6.60;4.18;;;;;;;;;;5053573;28;20024;-78
2023/06/25 09:46:52;;;;;;;4.85;4.20;;;;;;;;;;5071955;28;20029;-80
2023/06/25 09:49:19;;;;;;;4.30;3.80;;;;;;;;;;5045318;28;20044;-80
2023/06/25 09:52:04;;;;;;;4.50;4.00;;;;;;;;;;5062192;28;20033;-82
2023/06/25 09:54:30;;;;;;;5.32;4.10;;;;;;;;;;5079740;28;20036;-78
2023/06/25 09:56:58;;;;;;;4.43;3.90;;;;;;;;;;5059786;28;20020;-82
2023/06/25 09:59:24;;;;;;;6.03;4.45;;;;;;;;;;5067808;28;20041;-80
2023/06/25 10:01:50;;;;;;;5.07;3.63;;;;;;;;;;5056666;28;20120;-82
2023/06/25 10:04:16;;;;;;;5.10;4.43;;;;;;;;;;5054542;28;20044;-80
2023/06/25 10:06:41;;;;;;;6.07;4.15;;;;;;;;;;5054629;28;20021;-79
2023/06/25 10:09:07;;;;;;;5.45;4.60;;;;;;;;;;5065662;28;20537;-77
2023/06/25 10:11:34;;;;;;;6.68;4.32;;;;;;;;;;5065946;28;20057;-79
2023/06/25 10:13:59;;;;;;;7.85;4.80;;;;;;;;;;5072323;28;20075;-79
2023/06/25 10:16:30;;;;;;;8.18;5.30;;;;;;;;;;5077387;28;20036;-79
2023/06/25 10:18:56;;;;;;;6.10;4.38;;;;;;;;;;5066817;28;20039;-79
2023/06/25 10:21:23;;;;;;;4.97;4.03;;;;;;;;;;5058763;28;20119;-79
2023/06/25 10:24:02;;;;;;;4.35;3.85;;;;;;;;;;5077481;28;20047;-80
2023/06/25 10:26:34;;;;;;;7.00;4.40;;;;;;;;;;5066746;28;20037;-80
2023/06/25 10:29:01;;;;;;;7.93;4.38;;;;;;;;;;5074976;28;20043;-80
2023/06/25 10:31:35;;;;;;;9.63;4.70;;;;;;;;;;5060365;28;20511;-79
2023/06/25 10:34:08;;;;;;;4.72;4.20;;;;;;;;;;5077172;28;20028;-79
2023/06/25 10:36:34;;;;;;;6.63;5.00;;;;;;;;;;5069032;28;20509;-80
2023/06/25 10:39:00;;;;;;;7.03;4.82;;;;;;;;;;5067369;28;20029;-80
2023/06/25 10:41:30;;;;;;;5.60;4.65;;;;;;;;;;5076999;28;20028;-80
2023/06/25 10:43:57;;;;;;;5.97;4.55;;;;;;;;;;5068573;28;20097;-80
2023/06/25 10:46:32;;;;;;;4.63;4.05;;;;;;;;;;5059008;28;20041;-80
2023/06/25 10:49:01;;;;;;;6.57;4.40;;;;;;;;;;5042774;28;20059;-80
2023/06/25 10:51:28;;;;;;;5.57;4.78;;;;;;;;;;5061023;28;20040;-80
2023/06/25 10:53:55;;;;;;;5.70;4.47;;;;;;;;;;5045806;28;20036;-80
2023/06/25 10:56:21;;;;;;;7.03;4.70;;;;;;;;;;5054745;28;20033;-80
2023/06/25 10:58:53;;;;;;;5.38;4.82;;;;;;;;;;5074498;28;20035;-80
2023/06/25 11:01:18;;;;;;;5.85;4.68;;;;;;;;;;5057282;28;20032;-80
2023/06/25 11:03:44;;;;;;;8.93;5.10;;;;;;;;;;5050009;28;20032;-80
2023/06/25 11:06:09;;;;;;;6.20;5.35;;;;;;;;;;5043463;28;20296;-80
2023/06/25 11:08:34;;;;;;;5.72;4.38;;;;;;;;;;5059630;28;20387;-80
2023/06/25 11:11:00;;;;;;;5.70;4.00;;;;;;;;;;5070815;28;20090;-79
2023/06/25 11:13:25;;;;;;;5.63;4.70;;;;;;;;;;5056770;28;20025;-80
2023/06/25 11:15:51;;;;;;;6.22;4.68;;;;;;;;;;5042861;28;20486;-80
2023/06/25 11:18:21;;;;;;;6.40;4.88;;;;;;;;;;5066563;28;20029;-80
2023/06/25 11:20:46;;;;;;;5.47;4.97;;;;;;;;;;5061118;28;20017;-80
2023/06/25 11:23:13;;;;;;;5.13;4.40;;;;;;;;;;5068044;28;20044;-80
2023/06/25 11:25:39;;;;;;;4.93;4.43;;;;;;;;;;5076183;28;20108;-80
2023/06/25 11:28:07;;;;;;;5.32;4.70;;;;;;;;;;5055972;28;20051;-80
2023/06/25 11:30:33;;;;;;;8.23;4.32;;;;;;;;;;5075827;28;20039;-80
2023/06/25 11:33:16;;;;;;;5.43;4.55;;;;;;;;;;5076523;28;20059;-80
2023/06/25 11:35:44;;;;;;;5.68;4.72;;;;;;;;;;5059295;28;20040;-80
2023/06/25 11:38:10;;;;;;;5.57;5.05;;;;;;;;;;5067637;28;20416;-80
2023/06/25 11:40:37;;;;;;;6.53;5.70;;;;;;;;;;5048312;28;20032;-80
2023/06/25 11:43:02;;;;;;;7.28;4.95;;;;;;;;;;5067534;28;20040;-80
2023/06/25 11:45:40;;;;;;;5.03;4.28;;;;;;;;;;5074984;28;20028;-80
2023/06/25 11:48:14;;;;;;;7.32;5.30;;;;;;;;;;5069075;28;20540;-80
2023/06/25 11:50:41;;;;;;;6.38;5.28;;;;;;;;;;5064005;28;20110;-80
2023/06/25 11:53:07;;;;;;;6.18;5.57;;;;;;;;;;5070278;28;20044;-80
2023/06/25 11:55:32;;;;;;;6.65;5.13;;;;;;;;;;5049536;28;20029;-80
2023/06/25 11:57:57;;;;;;;6.63;5.20;;;;;;;;;;5056142;28;20032;-80
2023/06/25 12:00:23;;;;;;;6.40;4.68;;;;;;;;;;5049462;28;20037;-80
2023/06/25 12:02:49;;;;;;;6.68;4.72;;;;;;;;;;5047877;28;20032;-80
2023/06/25 12:05:14;;;;;;;7.40;4.80;;;;;;;;;;5051413;28;20033;-81
2023/06/25 12:07:39;;;;;;;7.50;5.20;;;;;;;;;;5055980;28;20104;-81
2023/06/25 12:10:05;;;;;;;12.07;5.03;;;;;;;;;;5058667;28;20028;-81
2023/06/25 12:12:31;;;;;;;5.78;4.90;;;;;;;;;;5056072;28;20035;-81
2023/06/25 12:14:56;;;;;;;7.30;5.00;;;;;;;;;;5065610;28;20033;-81
2023/06/25 12:17:21;;;;;;;5.50;4.82;;;;;;;;;;5045582;28;20033;-80
2023/06/25 12:19:47;;;;;;;5.47;4.90;;;;;;;;;;5068211;28;20550;-81
2023/06/25 12:22:12;;;;;;;5.95;5.32;;;;;;;;;;5050997;28;20076;-81
2023/06/25 12:24:38;;;;;;;7.10;5.35;;;;;;;;;;5039994;28;20112;-80
2023/06/25 12:27:03;;;;;;;8.30;5.05;;;;;;;;;;5038770;28;20054;-81
2023/06/25 12:29:29;;;;;;;7.95;5.22;;;;;;;;;;5048473;28;20063;-81
2023/06/25 12:31:54;;;;;;;8.55;5.45;;;;;;;;;;5058532;28;20071;-81
2023/06/25 12:34:19;;;;;;;7.95;5.68;;;;;;;;;;5068636;28;20482;-82
2023/06/25 12:36:45;;;;;;;6.13;5.53;;;;;;;;;;5049414;28;20515;-81
2023/06/25 12:39:10;;;;;;;7.97;5.65;;;;;;;;;;5057632;28;20017;-81
2023/06/25 12:41:35;;;;;;;6.10;5.15;;;;;;;;;;5059100;28;20016;-81
2023/06/25 12:44:00;;;;;;;9.15;5.65;;;;;;;;;;5058778;28;20115;-81
2023/06/25 12:46:26;;;;;;;6.80;5.60;;;;;;;;;;5041582;28;20076;-80
2023/06/25 12:48:52;;;;;;;6.72;5.85;;;;;;;;;;5057219;28;20558;-81
2023/06/25 12:51:17;;;;;;;6.95;6.25;;;;;;;;;;5043054;28;20021;-82
2023/06/25 12:53:42;;;;;;;7.75;6.38;;;;;;;;;;5049705;28;20115;-81
2023/06/25 12:56:08;;;;;;;7.75;5.97;;;;;;;;;;5050994;28;20053;-80
2023/06/25 12:58:33;;;;;;;8.70;6.43;;;;;;;;;;5047601;28;20033;-81
2023/06/25 13:00:58;;;;;;;7.00;6.15;;;;;;;;;;5069574;28;20459;-82
2023/06/25 13:03:24;;;;;;;9.73;5.88;;;;;;;;;;5067789;28;20576;-80
2023/06/25 13:05:49;;;;;;;8.45;6.10;;;;;;;;;;5055764;28;20047;-81
2023/06/25 13:08:14;;;;;;;7.53;6.25;;;;;;;;;;5038403;28;20021;-80
2023/06/25 13:10:40;;;;;;;6.97;6.28;;;;;;;;;;5056570;28;20032;-81
2023/06/25 13:13:06;;;;;;;8.43;6.28;;;;;;;;;;5058157;28;20131;-81
2023/06/25 13:15:31;;;;;;;6.57;5.80;;;;;;;;;;5049481;28;20113;-81
2023/06/25 13:17:57;;;;;;;8.00;6.50;;;;;;;;;;5071025;28;20088;-80
2023/06/25 13:20:23;;;;;;;8.57;5.78;;;;;;;;;;5054793;28;20040;-81
2023/06/25 13:22:48;;;;;;;7.70;6.30;;;;;;;;;;5041087;28;20040;-82
2023/06/25 13:25:13;;;;;;;7.05;6.10;;;;;;;;;;5053519;28;20029;-81
2023/06/25 13:27:38;;;;;;;7.05;6.35;;;;;;;;;;5067263;28;20124;-80
2023/06/25 13:30:05;;;;;;;8.32;6.95;;;;;;;;;;5059929;28;20432;-81
2023/06/25 13:32:30;;;;;;;7.32;6.50;;;;;;;;;;5044317;28;20025;-81
2023/06/25 13:34:56;;;;;;;7.80;6.60;;;;;;;;;;5062465;28;20029;-81
2023/06/25 13:37:21;;;;;;;7.35;6.45;;;;;;;;;;5053205;28;20041;-81
2023/06/25 13:39:46;;;;;;;14.63;6.40;;;;;;;;;;5070803;28;20119;-80
2023/06/25 13:42:12;;;;;;;8.00;6.32;;;;;;;;;;5072735;28;20029;-80
2023/06/25 13:44:38;;;;;;;7.78;6.30;;;;;;;;;;5075631;28;20059;-82
2023/06/25 13:47:03;;;;;;;7.40;6.60;;;;;;;;;;5049994;28;20036;-81
2023/06/25 13:49:29;;;;;;;7.93;6.45;;;;;;;;;;5067405;28;20033;-81
2023/06/25 13:51:54;;;;;;;7.97;6.55;;;;;;;;;;5078510;28;20082;-81
2023/06/25 13:54:19;;;;;;;6.88;6.00;;;;;;;;;;5071615;28;20036;-82
2023/06/25 13:56:45;;;;;;;8.23;6.55;;;;;;;;;;5063450;28;20506;-80
2023/06/25 13:59:10;;;;;;;7.72;6.20;;;;;;;;;;5052692;28;20033;-82
2023/06/25 14:01:35;;;;;;;7.47;6.22;;;;;;;;;;5069247;28;20025;-81
2023/06/25 14:04:00;;;;;;;7.72;6.32;;;;;;;;;;5066772;28;20406;-82
2023/06/25 14:06:26;;;;;;;8.00;6.57;;;;;;;;;;5057754;28;20090;-80
2023/06/25 14:08:51;;;;;;;6.45;5.80;;;;;;;;;;5061063;28;20025;-81
2023/06/25 14:11:16;;;;;;;8.00;7.13;;;;;;;;;;5062932;28;20055;-81
2023/06/25 14:13:42;;;;;;;6.47;5.65;;;;;;;;;;5039869;28;20037;-81
2023/06/25 14:16:07;;;;;;;7.60;6.18;;;;;;;;;;5057637;28;20029;-81
2023/06/25 14:18:32;;;;;;;7.85;6.65;;;;;;;;;;5056920;28;20037;-81
2023/06/25 14:20:58;;;;;;;7.70;6.90;;;;;;;;;;5040349;28;20112;-81
2023/06/25 14:23:23;;;;;;;8.32;5.95;;;;;;;;;;5055225;28;20036;-81
2023/06/25 14:25:48;;;;;;;9.77;5.93;;;;;;;;;;5073858;28;20519;-81
2023/06/25 14:28:14;;;;;;;6.90;5.82;;;;;;;;;;5039034;28;20048;-81
2023/06/25 14:30:39;;;;;;;8.63;6.63;;;;;;;;;;5058642;28;20087;-81
2023/06/25 14:33:05;;;;;;;7.22;5.88;;;;;;;;;;5052174;28;20025;-81
2023/06/25 14:35:32;;;;;;;13.93;6.10;;;;;;;;;;5050498;28;20048;-81